createdAt,value
2023-04-11T04:23:44.293Z,10.52
2023-04-11T04:25:13.235Z,10.57
2023-04-11T04:26:30.138Z,10.59
2023-04-11T04:40:22.867Z,10.69
2023-04-11T04:46:26.689Z,10.84
2023-04-11T04:48:04.606Z,10.82
2023-04-11T04:50:19.977Z,10.76
2023-04-11T04:51:37.329Z,10.86
2023-04-11T05:06:14.378Z,11.63
2023-04-11T05:07:21.756Z,11.51
2023-04-11T05:08:34.785Z,11.38
2023-04-11T05:09:44.261Z,11.58
2023-04-11T05:10:59.753Z,11.70
2023-04-11T05:16:56.952Z,12.34
2023-04-11T05:18:07.538Z,12.52
2023-04-11T05:19:11.140Z,12.81
2023-04-11T05:20:24.594Z,13.22
2023-04-11T05:21:35.759Z,13.47
2023-04-11T05:22:52.431Z,13.91
2023-04-11T05:24:05.007Z,15.15
2023-04-11T05:25:14.960Z,14.57
2023-04-11T05:26:37.469Z,15.08
2023-04-11T05:28:17.675Z,15.16
2023-04-11T05:31:14.963Z,15.24
2023-04-11T05:33:06.958Z,15.85
2023-04-11T05:34:23.687Z,15.46
2023-04-11T05:38:34.878Z,13.93
2023-04-11T05:40:44.317Z,13.86
2023-04-11T05:54:16.719Z,19.84
2023-04-11T05:55:19.124Z,19.96
2023-04-11T05:56:21.029Z,19.40
2023-04-11T05:57:23.635Z,19.01
2023-04-11T05:58:25.808Z,17.86
2023-04-11T05:59:28.978Z,16.89
2023-04-11T06:00:38.691Z,16.09
2023-04-11T06:01:41.101Z,15.99
2023-04-11T06:06:34.710Z,16.58
2023-04-11T06:07:44.150Z,16.08
2023-04-11T06:08:51.387Z,15.95
2023-04-11T06:09:53.484Z,15.87
2023-04-11T06:11:05.043Z,16.25
2023-04-11T06:12:09.464Z,16.00
2023-04-11T06:13:11.471Z,16.82
2023-04-11T06:14:20.475Z,17.41
2023-04-11T06:15:27.294Z,16.47
2023-04-11T06:16:29.676Z,16.62
2023-04-11T06:17:31.758Z,16.64
2023-04-11T06:18:33.614Z,17.19
2023-04-11T06:19:38.498Z,17.06
2023-04-11T06:20:40.600Z,17.06
2023-04-11T06:21:42.471Z,17.28
2023-04-11T06:22:50.808Z,17.61
2023-04-11T06:23:57.122Z,18.77
2023-04-11T06:24:59.212Z,19.54
2023-04-11T06:26:01.215Z,19.61
2023-04-11T06:27:03.691Z,19.47
2023-04-11T06:28:05.854Z,19.72
2023-04-11T06:29:07.768Z,19.87
2023-04-11T06:30:09.991Z,19.99
2023-04-11T06:31:12.094Z,20.50
2023-04-11T06:32:17.259Z,21.04
2023-04-11T06:33:19.264Z,21.95
2023-04-11T06:34:21.400Z,21.23
2023-04-11T06:35:25.082Z,20.99
2023-04-11T06:36:27.511Z,21.01
2023-04-11T06:37:29.521Z,20.50
2023-04-11T06:38:31.445Z,19.70
2023-04-11T06:39:34.541Z,19.11
2023-04-11T06:40:36.659Z,19.08
2023-04-11T06:41:38.453Z,19.19
2023-04-11T06:42:40.453Z,19.00
2023-04-11T06:43:42.333Z,18.69
2023-04-11T06:44:45.938Z,18.73
2023-04-11T06:45:49.685Z,17.48
2023-04-11T06:46:51.766Z,18.06
2023-04-11T06:47:57.985Z,17.87
2023-04-11T06:49:00.001Z,17.93
2023-04-11T06:50:02.061Z,18.45
2023-04-11T06:51:05.845Z,18.86
2023-04-11T06:52:07.844Z,19.39
2023-04-11T06:53:10.211Z,18.91
2023-04-11T06:54:12.012Z,18.61
2023-04-11T06:55:15.639Z,18.40
2023-04-11T06:56:17.657Z,18.13
2023-04-11T06:57:19.538Z,17.71
2023-04-11T06:58:22.577Z,17.87
2023-04-11T06:59:24.855Z,18.19
2023-04-11T07:00:27.303Z,18.29
2023-04-11T07:01:35.675Z,18.14
2023-04-11T07:02:39.369Z,17.81
2023-04-11T07:03:41.515Z,17.86
2023-04-11T07:04:43.650Z,17.61
2023-04-11T07:05:45.766Z,17.80
2023-04-11T07:06:47.966Z,17.78
2023-04-11T07:07:51.240Z,17.71
2023-04-11T07:08:53.058Z,17.64
2023-04-11T07:09:54.872Z,17.50
2023-04-11T07:10:56.997Z,18.20
2023-04-11T07:11:58.846Z,18.48
2023-04-11T07:13:00.814Z,18.79
2023-04-11T07:14:02.724Z,19.14
2023-04-11T07:15:05.413Z,19.45
2023-04-11T07:16:08.074Z,19.49
2023-04-11T07:17:10.016Z,20.08
2023-04-11T07:18:15.448Z,19.54
2023-04-11T07:19:17.520Z,19.83
2023-04-11T07:20:19.559Z,19.12
2023-04-11T07:21:22.201Z,19.34
2023-04-11T07:22:24.077Z,18.64
2023-04-11T07:23:26.508Z,18.68
2023-04-11T07:24:30.545Z,18.59
2023-04-11T07:25:33.950Z,18.90
2023-04-11T07:26:38.762Z,19.03
2023-04-11T07:27:43.867Z,19.59
2023-04-11T07:28:47.481Z,19.59
2023-04-11T07:29:49.623Z,19.63
2023-04-11T07:30:52.116Z,20.04
2023-04-11T07:31:53.987Z,19.99
2023-04-11T07:32:57.252Z,20.31
2023-04-11T07:33:59.201Z,20.96
2023-04-11T07:35:01.202Z,20.89
2023-04-11T07:36:04.133Z,20.27
2023-04-11T07:37:06.482Z,22.03
2023-04-11T07:38:09.533Z,21.22
2023-04-11T07:39:13.588Z,20.42
2023-04-11T07:40:15.657Z,21.15
2023-04-11T07:41:17.706Z,20.96
2023-04-11T07:42:19.487Z,21.43
2023-04-11T07:43:21.549Z,22.72
2023-04-11T07:44:24.002Z,22.75
2023-04-11T07:45:26.108Z,22.21
2023-04-11T07:46:27.891Z,22.48
2023-04-11T07:47:29.682Z,22.16
2023-04-11T07:48:32.284Z,22.18
2023-04-11T07:49:34.388Z,22.47
2023-04-11T07:50:36.391Z,22.23
2023-04-11T07:51:38.547Z,22.31
2023-04-11T07:52:40.516Z,23.10
2023-04-11T07:53:42.397Z,23.14
2023-04-11T07:54:44.381Z,23.42
2023-04-11T07:55:46.220Z,23.71
2023-04-11T07:56:47.980Z,24.44
2023-04-11T07:57:53.379Z,24.37
2023-04-11T07:58:55.207Z,24.77
2023-04-11T07:59:59.882Z,23.35
2023-04-11T08:01:02.726Z,24.22
2023-04-11T08:02:06.592Z,24.47
2023-04-11T08:03:11.310Z,23.74
2023-04-11T08:04:13.825Z,24.46
2023-04-11T08:05:16.138Z,23.61
2023-04-11T08:06:18.081Z,23.95
2023-04-11T08:07:19.879Z,24.39
2023-04-11T08:08:21.936Z,25.13
2023-04-11T08:09:23.780Z,23.91
2023-04-11T08:10:25.844Z,24.01
2023-04-11T08:11:27.775Z,23.32
2023-04-11T08:12:29.637Z,23.14
2023-04-11T08:13:32.137Z,21.87
2023-04-11T08:14:34.080Z,22.40
2023-04-11T08:15:37.141Z,23.05
2023-04-11T08:16:39.112Z,23.94
2023-04-11T08:17:43.819Z,23.64
2023-04-11T08:18:45.891Z,24.22
2023-04-11T08:19:47.949Z,24.66
2023-04-11T08:20:49.884Z,24.24
2023-04-11T08:21:52.767Z,23.22
2023-04-11T08:22:55.893Z,23.39
2023-04-11T08:23:57.979Z,22.33
2023-04-11T08:25:00.006Z,22.58
2023-04-11T08:26:01.782Z,22.41
2023-04-11T08:27:03.668Z,21.89
2023-04-11T08:28:06.161Z,21.33
2023-04-11T08:29:11.388Z,22.39
2023-04-11T08:30:13.966Z,22.26
2023-04-11T08:31:16.243Z,21.94
2023-04-11T08:32:18.204Z,21.90
2023-04-11T08:33:23.349Z,21.75
2023-04-11T08:34:25.495Z,22.00
2023-04-11T08:35:27.834Z,21.96
2023-04-11T08:36:30.157Z,22.31
2023-04-11T08:37:33.379Z,22.21
2023-04-11T08:38:36.584Z,22.62
2023-04-11T08:39:38.449Z,23.12
2023-04-11T08:40:40.316Z,23.15
2023-04-11T08:41:42.583Z,22.94
2023-04-11T08:42:44.899Z,23.07
2023-04-11T08:43:47.996Z,23.47
2023-04-11T08:44:58.148Z,23.40
2023-04-11T08:46:04.210Z,23.39
2023-04-11T08:47:06.695Z,22.90
2023-04-11T08:48:12.384Z,23.20
2023-04-11T08:49:14.405Z,23.17
2023-04-11T08:50:16.233Z,22.74
2023-04-11T08:51:23.132Z,22.75
2023-04-11T08:52:25.935Z,22.10
2023-04-11T08:53:30.210Z,22.14
2023-04-11T08:54:32.013Z,21.91
2023-04-11T08:55:34.367Z,21.72
2023-04-11T08:56:42.175Z,22.14
2023-04-11T08:57:44.065Z,21.91
2023-04-11T08:58:48.120Z,22.48
2023-04-11T08:59:53.399Z,21.43
2023-04-11T09:00:55.389Z,21.71
2023-04-11T09:02:09.309Z,21.69
2023-04-11T09:03:13.341Z,22.00
2023-04-11T09:04:15.377Z,22.14
2023-04-11T09:05:28.593Z,21.81
2023-04-11T09:06:31.096Z,22.15
2023-04-11T09:07:48.378Z,22.39
2023-04-11T09:08:50.954Z,22.33
2023-04-11T09:09:52.787Z,21.29
2023-04-11T09:11:01.389Z,21.08
2023-04-11T09:12:04.366Z,20.91
2023-04-11T09:13:26.564Z,20.40
2023-04-11T09:14:29.200Z,20.95
2023-04-11T09:15:31.901Z,21.13
2023-04-11T09:16:34.213Z,21.04
2023-04-11T09:17:42.513Z,20.66
2023-04-11T09:18:47.071Z,20.83
2023-04-11T09:19:49.599Z,20.50
2023-04-11T09:21:02.987Z,21.35
2023-04-11T09:22:07.748Z,21.30
2023-04-11T09:23:22.266Z,20.93
2023-04-11T09:24:25.750Z,20.55
2023-04-11T09:25:28.320Z,20.17
2023-04-11T09:26:30.882Z,20.19
2023-04-11T09:27:32.754Z,19.38
2023-04-11T09:28:54.865Z,18.75
2023-04-11T09:29:56.998Z,19.60
2023-04-11T09:30:58.811Z,19.74
2023-04-11T09:32:00.768Z,19.69
2023-04-11T09:33:22.779Z,19.68
2023-04-11T09:34:27.552Z,19.67
2023-04-11T09:35:29.736Z,19.64
2023-04-11T09:36:31.601Z,19.77
2023-04-11T09:37:57.963Z,19.56
2023-04-11T09:39:00.246Z,19.60
2023-04-11T09:40:03.463Z,19.56
2023-04-11T09:41:06.140Z,19.50
2023-04-11T09:42:28.361Z,19.10
2023-04-11T09:43:50.518Z,18.77
2023-04-11T09:44:53.248Z,18.87
2023-04-11T09:46:11.783Z,18.62
2023-04-11T09:47:13.785Z,18.99
2023-04-11T09:48:16.501Z,19.42
2023-04-11T09:49:18.478Z,19.40
2023-04-11T09:50:20.962Z,19.74
2023-04-11T09:52:30.824Z,19.27
2023-04-11T09:53:35.275Z,19.18
2023-04-11T09:54:37.875Z,18.88
2023-04-11T09:55:40.093Z,19.20
2023-04-11T09:56:42.935Z,18.33
2023-04-11T09:57:46.988Z,18.24
2023-04-11T09:58:50.016Z,18.60
2023-04-11T09:59:53.564Z,18.70
2023-04-11T10:00:56.692Z,18.76
2023-04-11T10:01:58.992Z,18.49
2023-04-11T10:03:01.359Z,18.60
2023-04-11T10:04:04.637Z,18.58
2023-04-11T10:05:08.438Z,18.23
2023-04-11T10:06:16.565Z,18.38
2023-04-11T10:07:19.697Z,18.42
2023-04-11T10:08:32.738Z,18.26
2023-04-11T10:09:39.685Z,18.44
2023-04-11T10:10:44.174Z,18.58
2023-04-11T10:11:49.243Z,18.59
2023-04-11T10:12:51.753Z,18.73
2023-04-11T10:13:58.111Z,18.71
2023-04-11T10:15:08.407Z,18.59
2023-04-11T10:16:15.993Z,18.34
2023-04-11T10:17:22.776Z,18.52
2023-04-11T10:18:27.423Z,18.64
2023-04-11T10:19:29.314Z,18.47
2023-04-11T10:20:50.984Z,18.58
2023-04-11T10:21:53.112Z,18.73
2023-04-11T10:22:59.313Z,18.60
2023-04-11T10:24:09.947Z,18.45
2023-04-11T10:25:15.512Z,18.29
2023-04-11T10:27:07.716Z,17.97
2023-04-11T10:28:30.939Z,18.17
2023-04-11T10:29:34.889Z,17.98
2023-04-11T10:30:46.245Z,18.26
2023-04-11T10:32:20.789Z,18.26
2023-04-11T10:33:26.109Z,18.45
2023-04-11T10:34:27.883Z,18.25
2023-04-11T10:35:30.965Z,18.26
2023-04-11T10:37:06.305Z,18.15
2023-04-11T10:38:47.993Z,18.05
2023-04-11T10:40:00.726Z,18.05
2023-04-11T10:41:25.038Z,18.21
2023-04-11T10:42:55.252Z,18.38
2023-04-11T10:44:23.551Z,18.51
2023-04-11T10:49:05.116Z,17.71
2023-04-11T10:50:28.897Z,17.89
2023-04-11T10:51:34.767Z,18.00
2023-04-11T10:52:38.431Z,17.99
2023-04-11T10:53:40.984Z,18.09
2023-04-11T10:54:44.630Z,18.14
2023-04-11T10:55:48.693Z,18.30
2023-04-11T10:56:55.158Z,18.48
2023-04-11T10:58:11.468Z,18.52
2023-04-11T10:59:32.083Z,18.47
2023-04-11T11:00:52.475Z,18.46
2023-04-11T11:01:55.954Z,18.38
2023-04-11T11:02:58.392Z,18.27
2023-04-11T11:04:00.995Z,18.31
2023-04-11T11:05:15.070Z,18.34
2023-04-11T11:06:17.215Z,18.41
2023-04-11T11:07:19.050Z,18.54
2023-04-11T11:08:30.545Z,18.42
2023-04-11T11:09:33.451Z,18.49
2023-04-11T11:10:36.941Z,18.35
2023-04-11T11:11:38.712Z,18.54
2023-04-11T11:12:56.141Z,18.60
2023-04-11T11:14:01.709Z,18.80
2023-04-11T11:15:13.477Z,18.69
2023-04-11T11:16:17.792Z,18.28
2023-04-11T11:17:19.746Z,18.29
2023-04-11T11:18:22.826Z,18.49
2023-04-11T11:19:24.679Z,18.59
2023-04-11T11:20:26.473Z,18.53
2023-04-11T11:21:30.121Z,18.68
2023-04-11T11:22:31.915Z,18.63
2023-04-11T11:23:36.085Z,18.01
2023-04-11T11:24:38.457Z,18.49
2023-04-11T11:25:40.386Z,18.02
2023-04-11T11:26:44.010Z,18.06
2023-04-11T11:27:46.140Z,18.31
2023-04-11T11:28:48.966Z,18.60
2023-04-11T11:29:51.563Z,18.63
2023-04-11T11:30:57.638Z,18.63
2023-04-11T11:32:00.449Z,18.56
2023-04-11T11:33:22.407Z,18.46
2023-04-11T11:34:31.516Z,18.61
2023-04-11T11:35:33.174Z,18.46
2023-04-11T11:36:39.074Z,18.63
2023-04-11T11:37:41.944Z,18.75
2023-04-11T11:38:47.158Z,18.63
2023-04-11T11:39:49.929Z,18.59
2023-04-11T11:40:52.307Z,18.31
2023-04-11T11:41:54.534Z,18.16
2023-04-11T11:42:56.345Z,18.28
2023-04-11T11:43:59.363Z,18.10
2023-04-11T11:45:20.554Z,18.12
2023-04-11T11:46:22.445Z,18.16
2023-04-11T11:47:25.835Z,18.00
2023-04-11T11:48:30.509Z,17.88
2023-04-11T11:49:52.646Z,17.82
2023-04-11T11:50:56.595Z,17.93
2023-04-11T11:51:58.582Z,17.64
2023-04-11T11:53:19.677Z,17.52
2023-04-11T11:54:22.959Z,17.48
2023-04-11T11:55:24.903Z,17.63
2023-04-11T11:56:26.786Z,17.72
2023-04-11T11:57:30.880Z,17.80
2023-04-11T11:58:43.540Z,17.66
2023-04-11T11:59:45.732Z,17.78
2023-04-11T12:00:50.375Z,17.63
2023-04-11T12:01:52.512Z,17.61
2023-04-11T12:06:45.990Z,17.51
2023-04-11T12:07:54.890Z,17.38
2023-04-11T12:09:06.071Z,17.43
2023-04-11T12:10:11.988Z,17.62
2023-04-11T12:11:16.870Z,17.42
2023-04-11T12:12:25.458Z,17.40
2023-04-11T12:13:37.559Z,17.50
2023-04-11T12:14:40.202Z,17.46
2023-04-11T12:15:46.832Z,17.62
2023-04-11T12:16:50.370Z,17.59
2023-04-11T12:17:54.174Z,17.60
2023-04-11T12:19:01.142Z,17.64
2023-04-11T12:20:18.758Z,17.56
2023-04-11T12:21:21.066Z,17.46
2023-04-11T12:22:22.968Z,17.51
2023-04-11T12:23:24.746Z,17.62
2023-04-11T12:24:26.755Z,17.78
2023-04-11T12:25:28.796Z,17.71
2023-04-11T12:26:30.683Z,17.76
2023-04-11T12:27:36.697Z,17.64
2023-04-11T12:28:43.545Z,17.39
2023-04-11T12:29:46.767Z,17.48
2023-04-11T12:30:48.661Z,17.59
2023-04-11T12:31:50.811Z,17.57
2023-04-11T12:32:52.980Z,17.69
2023-04-11T12:33:55.300Z,17.73
2023-04-11T12:34:57.458Z,17.74
2023-04-11T12:35:59.287Z,17.82
2023-04-11T12:37:01.163Z,17.83
2023-04-11T12:38:04.258Z,17.79
2023-04-11T12:39:07.331Z,17.51
2023-04-11T12:40:12.176Z,17.46
2023-04-11T12:41:31.735Z,17.73
2023-04-11T12:42:39.049Z,17.86
2023-04-11T12:43:47.486Z,17.99
2023-04-11T12:44:50.928Z,18.09
2023-04-11T12:45:53.321Z,17.98
2023-04-11T12:46:55.190Z,18.03
2023-04-11T12:47:57.102Z,17.93
2023-04-11T12:49:00.852Z,18.09
2023-04-11T12:50:03.689Z,18.00
2023-04-11T12:51:05.890Z,18.04
2023-04-11T12:52:11.143Z,18.06
2023-04-11T12:53:12.930Z,18.18
2023-04-11T12:54:18.708Z,18.00
2023-04-11T12:55:21.764Z,18.06
2023-04-11T12:56:23.776Z,18.07
2023-04-11T12:57:25.967Z,18.20
2023-04-11T12:58:28.736Z,18.36
2023-04-11T12:59:32.333Z,18.21
2023-04-11T13:00:34.515Z,18.15
2023-04-11T13:01:37.046Z,18.17
2023-04-11T13:02:43.799Z,18.39
2023-04-11T13:03:46.936Z,18.26
2023-04-11T13:04:55.006Z,18.42
2023-04-11T13:05:57.013Z,18.44
2023-04-11T13:07:02.618Z,18.46
2023-04-11T13:08:04.754Z,18.54
2023-04-11T13:09:07.806Z,18.58
2023-04-11T13:10:10.440Z,18.49
2023-04-11T13:11:12.258Z,18.55
2023-04-11T13:12:14.414Z,18.43
2023-04-11T13:13:18.428Z,18.39
2023-04-11T13:14:21.060Z,18.30
2023-04-11T13:15:25.553Z,18.38
2023-04-11T13:16:27.415Z,18.28
2023-04-11T13:17:29.231Z,18.29
2023-04-11T13:18:31.131Z,18.30
2023-04-11T13:19:33.190Z,18.09
2023-04-11T13:20:35.118Z,18.06
2023-04-11T13:21:37.432Z,18.04
2023-04-11T13:22:43.507Z,18.00
2023-04-11T13:23:45.932Z,17.89
2023-04-11T13:24:47.726Z,17.91
2023-04-11T13:25:49.681Z,17.98
2023-04-11T13:26:51.569Z,18.02
2023-04-11T13:27:53.473Z,18.17
2023-04-11T13:28:56.071Z,18.21
2023-04-11T13:29:58.182Z,18.08
2023-04-11T13:31:00.125Z,17.80
2023-04-11T13:32:01.999Z,17.62
2023-04-11T13:33:05.516Z,17.78
2023-04-11T13:34:07.509Z,17.88
2023-04-11T13:35:09.582Z,18.04
2023-04-11T13:36:11.589Z,18.16
2023-04-11T13:37:13.453Z,18.26
2023-04-11T13:38:15.399Z,18.20
2023-04-11T13:39:19.466Z,18.09
2023-04-11T13:40:21.302Z,18.28
2023-04-11T13:41:24.182Z,18.27
2023-04-11T13:42:26.124Z,18.17
2023-04-11T13:43:28.449Z,18.17
2023-04-11T13:44:30.533Z,18.21
2023-04-11T13:45:32.496Z,18.28
2023-04-11T13:46:34.602Z,18.44
2023-04-11T13:47:38.762Z,18.46
2023-04-11T13:48:41.095Z,18.41
2023-04-11T13:49:43.236Z,18.32
2023-04-11T13:50:45.124Z,18.36
2023-04-11T13:51:46.956Z,18.22
2023-04-11T13:52:48.778Z,18.17
2023-04-11T13:53:50.815Z,18.15
2023-04-11T13:54:52.662Z,18.20
2023-04-11T13:55:55.038Z,18.22
2023-04-11T13:56:56.957Z,18.17
2023-04-11T13:57:58.795Z,18.29
2023-04-11T13:59:00.698Z,18.27
2023-04-11T14:00:06.821Z,18.25
2023-04-11T14:01:08.779Z,18.15
2023-04-11T14:02:11.107Z,18.18
2023-04-11T14:03:13.207Z,18.20
2023-04-11T14:04:15.706Z,18.25
2023-04-11T14:05:17.920Z,18.32
2023-04-11T14:06:19.842Z,18.32
2023-04-11T14:07:21.812Z,18.29
2023-04-11T14:08:23.655Z,18.32
2023-04-11T14:09:26.180Z,18.28
2023-04-11T14:10:28.245Z,18.31
2023-04-11T14:11:29.976Z,18.31
2023-04-11T14:12:31.831Z,18.24
2023-04-11T14:13:33.762Z,18.25
2023-04-11T14:14:37.196Z,18.29
2023-04-11T14:15:39.127Z,18.30
2023-04-11T14:16:41.183Z,18.32
2023-04-11T14:17:44.067Z,18.37
2023-04-11T14:18:46.009Z,18.24
2023-04-11T14:19:47.963Z,18.28
2023-04-11T14:20:49.950Z,18.15
2023-04-11T14:21:52.067Z,18.10
2023-04-11T14:22:56.360Z,18.05
2023-04-11T14:24:02.291Z,18.09
2023-04-11T14:25:05.657Z,18.14
2023-04-11T14:26:07.558Z,18.14
2023-04-11T14:27:09.734Z,18.09
2023-04-11T14:28:12.055Z,18.12
2023-04-11T14:29:14.263Z,18.07
2023-04-11T14:30:16.974Z,18.18
2023-04-11T14:31:25.004Z,18.22
2023-04-11T14:32:27.989Z,18.14
2023-04-11T14:33:31.940Z,18.14
2023-04-11T14:35:02.555Z,17.98
2023-04-11T14:36:07.417Z,17.97
2023-04-11T14:37:09.670Z,17.93
2023-04-11T14:38:11.644Z,17.98
2023-04-11T14:39:14.094Z,17.88
2023-04-11T14:40:17.726Z,17.88
2023-04-11T14:41:19.723Z,17.88
2023-04-11T14:42:21.831Z,17.79
2023-04-11T14:43:27.422Z,17.75
2023-04-11T14:44:29.868Z,17.78
2023-04-11T14:45:32.180Z,17.79
2023-04-11T14:46:35.668Z,17.68
2023-04-11T14:47:40.035Z,17.66
2023-04-11T14:48:41.868Z,17.66
2023-04-11T14:49:44.116Z,17.67
2023-04-11T14:50:48.633Z,17.56
2023-04-11T14:52:07.034Z,17.40
2023-04-11T14:53:09.357Z,17.43
2023-04-11T14:54:11.570Z,17.33
2023-04-11T14:55:13.496Z,17.35
2023-04-11T14:56:15.658Z,17.31
2023-04-11T14:57:52.363Z,17.22
2023-04-11T14:58:54.859Z,17.26
2023-04-11T14:59:59.556Z,17.19
2023-04-11T15:01:01.471Z,17.18
2023-04-11T15:02:05.366Z,17.16
2023-04-11T15:03:10.793Z,17.09
2023-04-11T15:04:13.329Z,17.05
2023-04-11T15:05:18.102Z,17.05
2023-04-11T15:06:21.583Z,17.01
2023-04-11T15:07:23.502Z,16.97
2023-04-11T15:08:25.600Z,16.96
2023-04-11T15:09:28.185Z,16.92
2023-04-11T15:10:30.753Z,16.86
2023-04-11T15:11:33.592Z,16.90
2023-04-11T15:12:36.455Z,16.90
2023-04-11T15:13:41.274Z,16.88
2023-04-11T15:15:25.378Z,16.85
2023-04-11T15:16:27.767Z,16.70
2023-04-11T15:17:42.668Z,16.64
2023-04-11T15:18:46.121Z,16.63
2023-04-11T15:19:48.264Z,16.65
2023-04-11T15:20:51.080Z,16.59
2023-04-11T15:21:52.882Z,16.57
2023-04-11T15:23:17.602Z,16.57
2023-04-11T15:24:24.759Z,16.56
2023-04-11T15:25:27.444Z,16.52
2023-04-11T15:26:30.150Z,16.50
2023-04-11T15:27:32.515Z,16.49
2023-04-11T15:28:38.639Z,16.45
2023-04-11T15:30:35.049Z,16.43
2023-04-11T15:32:55.059Z,16.41
2023-04-11T15:34:05.266Z,16.37
2023-04-11T15:37:37.568Z,16.29
2023-04-11T15:38:40.057Z,16.30
2023-04-11T15:39:42.370Z,16.29
2023-04-11T15:40:57.124Z,16.29
2023-04-11T15:42:32.571Z,16.26
2023-04-11T15:45:52.424Z,16.16
2023-04-11T15:46:56.162Z,16.14
2023-04-11T15:48:25.499Z,16.09
2023-04-11T15:50:21.622Z,16.10
2023-04-11T15:51:28.559Z,16.10
2023-04-11T15:52:33.881Z,16.09
2023-04-11T15:53:36.909Z,16.09
2023-04-11T15:54:41.003Z,16.07
2023-04-11T15:55:46.191Z,16.08
2023-04-11T15:56:51.552Z,16.08
2023-04-11T15:57:55.209Z,16.06
2023-04-11T15:58:57.536Z,16.08
2023-04-11T16:00:01.299Z,16.06
2023-04-11T16:01:38.190Z,16.05
2023-04-11T16:02:45.894Z,16.00
2023-04-11T16:03:50.365Z,15.98
2023-04-11T16:04:54.622Z,15.97
2023-04-11T16:05:59.961Z,15.95
2023-04-11T16:07:02.791Z,15.90
2023-04-11T16:08:14.260Z,15.91
2023-04-11T16:09:21.629Z,15.89
2023-04-11T16:10:25.695Z,15.89
2023-04-11T16:11:32.079Z,15.82
2023-04-11T16:12:38.467Z,15.82
2023-04-11T16:13:44.135Z,15.80
2023-04-11T16:14:46.451Z,15.78
2023-04-11T16:15:52.142Z,15.77
2023-04-11T16:16:54.384Z,15.76
2023-04-11T16:17:56.329Z,15.76
2023-04-11T16:18:58.174Z,15.75
2023-04-11T16:20:02.487Z,15.73
2023-04-11T16:21:12.565Z,15.69
2023-04-11T16:22:14.378Z,15.67
2023-04-11T16:23:18.810Z,15.68
2023-04-11T16:24:21.366Z,15.69
2023-04-11T16:25:23.146Z,15.69
2023-04-11T16:26:27.020Z,15.71
2023-04-11T16:27:29.263Z,15.67
2023-04-11T16:28:31.067Z,15.66
2023-04-11T16:29:35.276Z,15.68
2023-04-11T16:30:37.390Z,15.68
2023-04-11T16:31:39.386Z,15.69
2023-04-11T16:32:43.064Z,15.71
2023-04-11T16:33:47.906Z,15.71
2023-04-11T16:34:52.053Z,15.71
2023-04-11T16:35:53.820Z,15.69
2023-04-11T16:36:58.589Z,15.67
2023-04-11T16:38:00.713Z,15.74
2023-04-11T16:39:04.261Z,15.71
2023-04-11T16:40:11.495Z,15.71
2023-04-11T16:41:16.385Z,15.68
2023-04-11T16:42:18.923Z,15.71
2023-04-11T16:43:20.853Z,15.70
2023-04-11T16:44:38.755Z,15.65
2023-04-11T16:45:50.751Z,15.68
2023-04-11T16:46:58.125Z,15.65
2023-04-11T16:48:00.509Z,15.67
2023-04-11T16:49:02.402Z,15.67
2023-04-11T16:50:35.308Z,15.67
2023-04-11T16:53:14.308Z,15.72
2023-04-11T16:54:27.065Z,15.69
2023-04-11T16:55:28.957Z,15.71
2023-04-11T16:56:35.630Z,15.66
2023-04-11T16:58:13.896Z,15.67
2023-04-11T17:05:10.901Z,15.52
2023-04-11T17:08:03.520Z,15.42
2023-04-11T17:09:20.223Z,15.44
2023-04-11T17:33:28.643Z,14.63
2023-04-11T17:34:57.989Z,14.58
2023-04-11T17:36:06.213Z,14.56
2023-04-11T17:37:10.364Z,14.54
2023-04-11T17:40:44.630Z,14.44
2023-04-11T17:43:03.360Z,14.40
2023-04-11T17:44:31.019Z,14.35
2023-04-11T17:46:09.105Z,14.30
2023-04-11T17:47:19.962Z,14.30
2023-04-11T17:48:30.054Z,14.24
2023-04-11T17:50:08.051Z,14.20
2023-04-11T17:51:21.252Z,14.18
2023-04-11T17:52:41.782Z,14.16
2023-04-11T17:54:05.073Z,14.11
2023-04-11T17:56:29.299Z,14.05
2023-04-11T17:58:14.136Z,14.02
2023-04-11T18:00:48.347Z,13.96
2023-04-11T18:13:53.824Z,13.75
2023-04-11T18:15:07.166Z,13.70
2023-04-11T18:18:49.914Z,13.67
2023-04-11T18:28:45.953Z,13.58
2023-04-11T18:31:15.715Z,13.56
2023-04-11T18:34:38.544Z,13.53
2023-04-11T18:41:02.204Z,13.43
2023-04-11T18:45:25.985Z,13.37
2023-04-11T18:46:38.294Z,13.36
2023-04-11T18:48:23.309Z,13.36
2023-04-11T18:54:24.755Z,13.27
2023-04-11T19:04:05.968Z,13.05
2023-04-11T19:08:35.162Z,13.00
2023-04-11T19:09:39.322Z,12.97
2023-04-11T19:10:47.397Z,12.95
2023-04-11T19:11:52.638Z,12.96
2023-04-11T19:16:02.575Z,12.89
2023-04-11T19:17:06.403Z,12.90
2023-04-11T19:18:10.698Z,12.88
2023-04-11T19:19:13.886Z,12.86
2023-04-11T19:20:26.683Z,12.88
2023-04-11T19:21:29.695Z,12.85
2023-04-11T19:22:32.992Z,12.85
2023-04-11T19:23:40.092Z,12.82
2023-04-11T19:24:50.977Z,12.83
2023-04-11T19:26:06.286Z,12.82
2023-04-11T19:27:24.679Z,12.80
2023-04-11T19:28:29.519Z,12.74
2023-04-11T19:29:35.764Z,12.76
2023-04-11T19:30:50.391Z,12.72
2023-04-11T19:31:55.603Z,12.73
2023-04-11T19:32:59.039Z,12.71
2023-04-11T19:34:06.470Z,12.70
2023-04-11T19:36:03.634Z,12.63
2023-04-11T19:37:06.937Z,12.61
2023-04-11T19:39:53.585Z,12.56
2023-04-11T19:41:10.947Z,12.51
2023-04-11T19:42:16.877Z,12.48
2023-04-11T19:43:22.453Z,12.48
2023-04-11T19:44:55.406Z,12.45
2023-04-11T19:46:24.829Z,12.48
2023-04-11T19:47:28.611Z,12.50
2023-04-11T19:48:37.923Z,12.46
2023-04-11T19:49:44.057Z,12.46
2023-04-11T19:51:14.382Z,12.47
2023-04-11T19:52:25.152Z,12.42
2023-04-11T19:53:30.879Z,12.40
2023-04-11T19:54:43.012Z,12.40
2023-04-11T19:55:54.941Z,12.41
2023-04-11T19:56:59.260Z,12.38
2023-04-11T19:58:05.349Z,12.39
2023-04-11T19:59:13.091Z,12.42
2023-04-11T20:00:26.561Z,12.42
2023-04-11T20:01:32.900Z,12.41
2023-04-11T20:02:48.810Z,12.40
2023-04-11T20:04:04.662Z,12.40
2023-04-11T20:11:53.514Z,12.28
2023-04-11T20:13:00.951Z,12.23
2023-04-11T20:14:06.303Z,12.26
2023-04-11T20:15:15.456Z,12.23
2023-04-11T20:16:24.187Z,12.22
2023-04-11T20:17:29.810Z,12.23
2023-04-11T20:18:36.677Z,12.22
2023-04-11T20:19:47.278Z,12.20
2023-04-11T20:21:19.550Z,12.22
2023-04-11T20:22:23.725Z,12.18
2023-04-11T20:23:34.954Z,12.19
2023-04-11T20:24:42.540Z,12.16
2023-04-11T20:26:43.234Z,12.16
2023-04-11T20:30:29.873Z,12.04
2023-04-11T20:33:10.174Z,12.00
2023-04-11T20:34:13.718Z,11.95
2023-04-11T20:35:49.655Z,11.94
2023-04-11T20:37:01.189Z,11.92
2023-04-11T20:38:04.348Z,11.93
2023-04-11T20:39:08.075Z,11.91
2023-04-11T20:40:41.561Z,11.90
2023-04-11T20:41:51.159Z,11.91
2023-04-11T20:46:57.365Z,11.77
2023-04-11T20:48:02.603Z,11.74
2023-04-11T20:49:05.639Z,11.71
2023-04-11T20:50:16.319Z,11.68
2023-04-11T20:51:24.674Z,11.66
2023-04-11T20:52:33.197Z,11.65
2023-04-11T20:53:40.428Z,11.64
2023-04-11T20:54:46.891Z,11.63
2023-04-11T20:57:15.068Z,11.62
2023-04-11T20:58:21.522Z,11.59
2023-04-11T20:59:24.443Z,11.58
2023-04-11T21:00:53.411Z,11.49
2023-04-11T21:01:59.440Z,11.51
2023-04-11T21:03:06.110Z,11.50
2023-04-11T21:04:17.725Z,11.50
2023-04-11T21:15:02.098Z,11.11
2023-04-11T21:19:56.752Z,10.94
2023-04-11T21:21:28.677Z,10.91
2023-04-11T21:22:33.831Z,10.91
2023-04-11T21:23:49.890Z,10.86
2023-04-11T21:24:56.738Z,10.81
2023-04-11T21:26:06.502Z,10.78
2023-04-11T21:27:11.210Z,10.75
2023-04-11T21:29:32.567Z,10.72
2023-04-11T21:31:36.652Z,10.66
2023-04-11T21:32:44.140Z,10.62
2023-04-11T21:33:47.099Z,10.62
2023-04-11T21:34:51.861Z,10.60
2023-04-11T21:36:02.426Z,10.53
2023-04-11T21:37:08.502Z,10.46
2023-04-11T21:38:23.638Z,10.49
2023-04-11T21:39:28.860Z,10.51
2023-04-11T21:41:24.302Z,10.39
2023-04-11T21:42:32.091Z,10.32
2023-04-11T21:43:37.202Z,10.19
2023-04-11T21:44:43.257Z,10.14
2023-04-11T21:57:43.622Z,9.98
2023-04-11T21:58:46.973Z,9.99
2023-04-11T21:59:54.480Z,9.94
2023-04-11T22:01:49.593Z,9.89
2023-04-11T22:03:28.269Z,9.85
2023-04-11T22:04:51.346Z,9.78
2023-04-11T22:10:09.951Z,9.65
2023-04-11T22:14:49.813Z,9.58
2023-04-11T22:21:25.465Z,9.48
2023-04-11T22:22:57.855Z,9.47
2023-04-11T22:24:02.584Z,9.48
2023-04-11T22:25:09.104Z,9.44
2023-04-11T22:29:53.688Z,9.30
2023-04-11T22:38:35.811Z,9.19
2023-04-11T22:40:06.493Z,9.08
2023-04-11T22:44:39.907Z,9.04
2023-04-11T22:47:15.895Z,8.88
2023-04-11T22:49:27.749Z,8.93
2023-04-11T22:57:49.364Z,8.78